Terminal Aerodrome Forecast
Issued by NWS

Home | Current Version | Previous Version | Text Only | Print | Product List | Glossary On
Versions: 1 2 3 4 5 6 7 8 9 10 11 12 13 14 15 16 17 18 19
000
FTUS43 KIND 182323
TAFLAF
TAF
KLAF 182323Z 1900/1924 32017G31KT P6SM -SHRA OVC012
     FM190100 32018G30KT P6SM VCSH OVC015
     FM190300 32017G29KT P6SM VCSH OVC020
     FM191000 31013G25KT P6SM BKN025
     FM191500 30012G21KT P6SM SCT025
     FM192000 29011KT P6SM FEW250
      AMD LTD TO CLD VIS AND WIND 1902/1914=

USA.gov is the U.S. government's official web portal to all federal, state and local government web resources and services.